Wanda, Minnesota
Current Conditions -  °F | °C
As of 6:53 PM on Saturday 22 Nov 2014 (Local Time) from KRWF Reporting Station
Haze Haze  
Wind Chill: 26°   Ceiling: Unl
Heat Index: 36°   Visibility: 4mi
Dew Point: 34°   Wind: 16mph
Humidity: 93%   Direction: 140°SE
Pressure: 29.52"   Gusts: NA
Location:  44.32°N, 95.21°W
Report Text: KRWF 230053Z AUTO 14014KT 4SM BR CLR 02/01 A2952 RMK AO2 SLP006 T00220011
Loading
Personal Weather Stations






























Interactive Weather Map New forecast layout! Learn more

10-Day Weather Forecast

Advertisements
Track Severe Weather on mobile